Time;durP1;ratioP1;P1;durP2;ratioP2;P2;SDS_P1;SDS_P2;PMS_P1;PMS_P2;Temp;Humidity;BMP_temperature;BMP_pressure;BME280_temperature;BME280_humidity;BME280_pressure;Samples;Min_cycle;Max_cycle;Signal;HPM_P1;HPM_P2
2023/01/26 00:00:44;;;;;;;;;54.75;40.50;;;;;3.88;65.62;102142.38;5011288;27;45543;-72
2023/01/26 00:03:10;;;;;;;;;51.50;39.75;;;;;3.85;65.31;102138.75;5009092;27;45793;-70
2023/01/26 00:05:36;;;;;;;;;55.50;38.75;;;;;3.75;66.21;102142.56;5014435;27;45308;-67
2023/01/26 00:08:03;;;;;;;;;58.75;39.75;;;;;3.69;66.27;102143.13;5012793;27;45629;-68
2023/01/26 00:10:28;;;;;;;;;53.00;40.00;;;;;3.70;66.36;102146.59;5026740;27;47204;-67
2023/01/26 00:12:54;;;;;;;;;56.25;42.00;;;;;3.57;66.95;102137.31;5010940;27;45442;-68
2023/01/26 00:15:19;;;;;;;;;58.50;41.00;;;;;3.52;67.57;102133.59;5010908;27;45489;-68
2023/01/26 00:17:45;;;;;;;;;56.75;40.00;;;;;3.60;66.58;102132.28;5011459;27;45517;-68
2023/01/26 00:20:11;;;;;;;;;54.75;39.25;;;;;3.58;67.16;102119.28;5009428;27;45422;-68
2023/01/26 00:22:36;;;;;;;;;60.75;44.25;;;;;3.45;68.05;102113.34;5011352;27;45432;-68
2023/01/26 00:25:02;;;;;;;;;56.00;42.50;;;;;3.31;67.42;102091.91;5010881;27;45717;-68
2023/01/26 00:27:28;;;;;;;;;56.25;42.75;;;;;3.39;68.26;102101.88;5011993;27;45466;-68
2023/01/26 00:29:53;;;;;;;;;57.75;44.00;;;;;3.48;67.74;102113.50;5015407;27;45541;-67
2023/01/26 00:32:19;;;;;;;;;60.33;47.00;;;;;3.32;68.07;102106.59;5014299;27;45566;-68
2023/01/26 00:34:45;;;;;;;;;63.33;48.00;;;;;3.21;67.48;102100.00;5014194;27;45292;-68
2023/01/26 00:37:10;;;;;;;;;58.33;43.33;;;;;3.11;67.87;102088.25;5014052;27;46605;-68
2023/01/26 00:39:36;;;;;;;;;70.67;49.67;;;;;3.04;67.99;102089.63;5014907;27;45962;-67
2023/01/26 00:42:12;;;;;;;;;64.00;47.33;;;;;2.90;68.10;102080.22;5014758;27;45259;-66
2023/01/26 00:44:38;;;;;;;;;74.33;53.33;;;;;2.89;68.38;102083.59;5013133;27;45643;-68
2023/01/26 00:47:05;;;;;;;;;72.00;50.67;;;;;2.79;68.46;102083.91;5010631;27;45597;-67
2023/01/26 00:49:31;;;;;;;;;65.00;48.67;;;;;2.73;69.00;102075.00;5010340;27;46609;-69
2023/01/26 00:51:57;;;;;;;;;75.00;57.33;;;;;2.50;69.41;102062.47;5009076;27;45475;-68
2023/01/26 00:54:22;;;;;;;;;71.33;51.00;;;;;2.41;70.58;102062.84;5009995;27;45596;-68
2023/01/26 00:56:48;;;;;;;;;67.67;49.67;;;;;2.47;70.01;102065.78;5009974;27;45831;-69
2023/01/26 00:59:13;;;;;;;;;71.00;51.00;;;;;2.47;70.92;102072.66;5010467;27;46695;-69
2023/01/26 01:01:39;;;;;;;;;74.33;52.00;;;;;2.40;70.72;102067.94;5012371;27;45462;-68
2023/01/26 01:04:05;;;;;;;;;69.67;51.00;;;;;2.30;71.49;102057.09;5003294;27;46102;-70
2023/01/26 01:06:30;;;;;;;;;71.67;51.67;;;;;2.24;72.50;102053.25;5018820;27;45368;-71
2023/01/26 01:08:56;;;;;;;;;75.00;52.00;;;;;2.15;72.37;102070.81;5009426;27;45405;-70
2023/01/26 01:11:22;;;;;;;;;70.00;51.00;;;;;2.17;72.43;102071.81;5010370;27;45690;-69
2023/01/26 01:13:47;;;;;;;;;68.67;50.33;;;;;2.19;72.54;102057.28;5010101;27;45475;-71
2023/01/26 08:33:57;;;;;;;;;81.33;55.00;;;;;1.13;90.28;102040.69;5107015;27;45444;-68
2023/01/26 08:36:23;;;;;;;;;74.00;52.00;;;;;1.29;89.54;102047.69;5083463;27;45584;-68
2023/01/26 08:38:49;;;;;;;;;75.00;52.33;;;;;1.48;88.96;102041.13;5082825;27;45444;-67
2023/01/26 08:41:15;;;;;;;;;76.33;57.33;;;;;1.65;88.35;102044.69;5091059;27;45649;-69
2023/01/26 08:43:40;;;;;;;;;73.67;52.67;;;;;1.87;86.87;102043.38;5091485;27;47257;-68
2023/01/26 08:46:06;;;;;;;;;80.33;51.00;;;;;2.00;86.09;102040.69;5090440;27;45401;-67
2023/01/26 08:48:32;;;;;;;;;71.33;52.33;;;;;2.15;85.04;102038.09;5088836;27;45786;-67
2023/01/26 08:51:00;;;;;;;;;71.33;52.67;;;;;2.24;85.19;102032.56;5086759;27;46041;-66
2023/01/26 08:53:28;;;;;;;;;77.00;56.33;;;;;2.34;84.03;102042.63;5093993;27;46487;-68
2023/01/26 08:55:54;;;;;;;;;68.33;51.00;;;;;2.47;83.50;102044.22;5090204;27;45527;-68
2023/01/26 08:58:19;;;;;;;;;72.33;52.00;;;;;2.47;83.52;102026.13;5090569;27;45671;-67
2023/01/26 09:00:45;;;;;;;;;71.33;51.33;;;;;2.49;82.92;102011.53;5091321;27;45382;-67
2023/01/26 09:03:10;;;;;;;;;70.00;48.00;;;;;2.67;83.13;102041.00;5087980;27;46352;-67
2023/01/26 09:05:38;;;;;;;;;67.67;49.67;;;;;2.72;82.65;102042.16;5090480;27;45408;-67
2023/01/26 09:08:06;;;;;;;;;61.00;47.33;;;;;2.80;82.58;102036.50;5097206;27;45475;-67
2023/01/26 09:10:33;;;;;;;;;72.67;47.67;;;;;2.99;82.24;102044.47;5085222;27;45517;-65
2023/01/26 09:12:59;;;;;;;;;67.33;50.33;;;;;3.13;81.98;102051.28;5089617;27;46425;-68
2023/01/26 09:15:26;;;;;;;;;75.67;53.33;;;;;3.12;81.22;102043.41;5093149;27;45527;-68
2023/01/26 09:17:51;;;;;;;;;71.33;50.33;;;;;3.21;81.59;102055.97;5089744;27;45475;-66
2023/01/26 09:20:17;;;;;;;;;68.33;49.00;;;;;3.26;80.81;102059.69;5091432;27;45533;-67
2023/01/26 09:22:43;;;;;;;;;72.33;51.33;;;;;3.28;80.27;102038.25;5088334;27;45515;-70
2023/01/26 09:25:13;;;;;;;;;74.00;53.33;;;;;3.40;80.23;102062.19;5088567;27;45826;-68
2023/01/26 09:27:39;;;;;;;;;75.00;49.00;;;;;3.46;80.60;102063.31;5086739;27;45703;-67
2023/01/26 09:30:07;;;;;;;;;72.50;52.00;;;;;3.48;79.86;102067.75;5086365;27;45555;-69
2023/01/26 09:32:33;;;;;;;;;68.33;51.67;;;;;3.53;79.52;102052.47;5091988;27;47615;-68
2023/01/26 09:34:58;;;;;;;;;75.00;52.33;;;;;3.56;79.64;102050.03;5090639;27;45807;-67
2023/01/26 09:37:24;;;;;;;;;65.50;47.25;;;;;3.69;78.69;102070.56;5075669;27;45525;-69
2023/01/26 09:39:49;;;;;;;;;73.67;51.33;;;;;3.64;78.85;102066.88;5090068;27;45567;-66
2023/01/26 09:42:36;;;;;;;;;66.00;50.33;;;;;3.68;78.90;102073.06;5094099;27;46606;-67
2023/01/26 09:45:02;;;;;;;;;63.67;48.00;;;;;3.74;78.54;102073.41;5068352;28;45503;-68
2023/01/26 09:47:49;;;;;;;;;68.00;47.67;;;;;3.84;78.61;102070.47;5080574;28;45496;-67
2023/01/26 09:50:22;;;;;;;;;62.25;46.50;;;;;3.92;78.58;102060.50;5091466;27;45737;-67
2023/01/26 09:53:03;;;;;;;;;51.75;39.00;;;;;3.99;78.00;102054.81;5075642;28;45595;-67
2023/01/26 09:55:30;;;;;;;;;51.00;38.00;;;;;4.15;77.78;102065.13;5075905;28;45531;-67
2023/01/26 09:58:17;;;;;;;;;54.75;38.25;;;;;4.32;76.98;102070.22;5080960;28;45479;-71
2023/01/26 10:00:51;;;;;;;;;49.25;39.00;;;;;4.38;77.08;102067.94;5082589;27;45536;-73
2023/01/26 10:03:31;;;;;;;;;52.00;37.75;;;;;4.37;76.47;102050.63;5077844;28;45368;-74
2023/01/26 10:06:27;;;;;;;;;56.25;41.25;;;;;4.52;76.08;102071.22;5091426;27;45622;-73
2023/01/26 10:08:56;;;;;;;;;57.75;42.50;;;;;4.25;76.38;102015.47;5064629;28;45428;-80
2023/01/26 10:11:26;;;;;;;;;59.00;42.75;;;;;4.68;75.63;102078.91;5075983;28;45428;-76
2023/01/26 10:14:16;;;;;;;;;51.25;38.00;;;;;4.62;77.80;102068.22;5076948;28;46810;-76
2023/01/26 10:16:46;;;;;;;;;51.25;39.25;;;;;4.86;75.97;102084.06;5074936;28;45673;-76
2023/01/26 10:19:30;;;;;;;;;48.25;36.50;;;;;4.88;75.12;102091.09;5078103;28;45887;-85
2023/01/26 10:21:59;;;;;;;;;54.50;39.25;;;;;4.89;76.51;102071.25;5082784;27;45429;-81
2023/01/26 10:24:29;;;;;;;;;55.50;40.50;;;;;5.02;76.12;102089.16;5086858;28;46434;-84
2023/01/26 10:26:57;;;;;;;;;59.50;43.75;;;;;5.00;76.44;102074.31;5082838;28;45282;-85
2023/01/26 10:29:24;;;;;;;;;56.25;40.00;;;;;5.14;75.74;102087.94;5083141;28;45616;-86
2023/01/26 10:31:49;;;;;;;;;56.25;40.50;;;;;5.09;74.76;102079.94;5082560;28;45287;-83
2023/01/26 10:34:26;;;;;;;;;52.25;37.75;;;;;4.99;74.96;102078.63;5080210;28;46131;-81
2023/01/26 10:37:00;;;;;;;;;48.50;37.00;;;;;5.01;74.26;102063.13;5086200;27;45504;-84
2023/01/26 10:39:26;;;;;;;;;46.50;36.25;;;;;5.13;73.99;102088.78;5078395;28;45411;-79
2023/01/26 10:42:00;;;;;;;;;57.00;39.25;;;;;5.14;74.49;102080.16;5081729;28;45501;-84
2023/01/26 10:44:35;;;;;;;;;51.75;39.25;;;;;5.19;74.15;102083.84;5081164;28;45470;-77
2023/01/26 10:47:14;;;;;;;;;51.00;40.00;;;;;5.20;73.95;102073.53;5077160;28;45529;-75
2023/01/26 10:49:40;;;;;;;;;52.25;40.00;;;;;5.44;78.44;102078.06;5088836;27;45456;-81
2023/01/26 10:52:20;;;;;;;;;50.00;34.00;;;;;5.59;74.42;102070.91;5065775;28;45984;-76
2023/01/26 10:54:52;;;;;;;;;52.00;37.75;;;;;5.44;73.32;102047.75;5077130;28;45505;-76
2023/01/26 10:57:30;;;;;;;;;54.00;38.00;;;;;5.41;73.18;102034.66;5076815;28;45595;-76
2023/01/26 11:00:09;;;;;;;;;51.25;39.00;;;;;5.54;77.96;102033.44;5077830;28;45432;-78
2023/01/26 11:02:36;;;;;;;;;46.75;39.00;;;;;5.74;74.72;102056.00;5096877;27;45433;-81
2023/01/26 11:05:10;;;;;;;;;53.25;41.00;;;;;5.88;74.88;102064.38;5092600;27;46949;-83
2023/01/26 11:07:40;;;;;;;;;48.75;36.50;;;;;5.91;73.50;102046.31;5077439;28;45472;-81
2023/01/26 11:10:17;;;;;;;;;53.50;39.00;;;;;5.99;75.50;102028.47;5076424;28;45344;-80
2023/01/26 11:12:43;;;;;;;;;49.75;39.00;;;;;6.12;72.99;102035.94;5064640;28;45487;-83
2023/01/26 11:15:29;;;;;;;;;48.00;36.00;;;;;6.36;75.21;102043.84;5079815;28;45337;-80
2023/01/26 11:17:58;;;;;;;;;48.00;37.50;;;;;6.43;75.12;102025.88;5063763;28;45416;-82
2023/01/26 11:20:50;;;;;;;;;45.75;36.25;;;;;6.76;72.40;102034.09;5079214;27;45478;-82
2023/01/26 11:23:18;;;;;;;;;48.50;35.75;;;;;6.88;74.10;102029.38;5079064;28;45370;-80
2023/01/26 11:25:59;;;;;;;;;52.00;36.00;;;;;7.06;71.08;102030.91;5078417;28;45722;-81
2023/01/26 11:28:49;;;;;;;;;50.25;36.75;;;;;7.08;70.77;102011.88;5077593;28;45341;-81
2023/01/26 11:31:35;;;;;;;;;47.75;37.50;;;;;7.23;70.36;102015.03;5079943;28;45355;-80
2023/01/26 11:34:13;;;;;;;;;49.25;38.00;;;;;7.34;70.92;102023.25;5097200;27;45351;-82
2023/01/26 11:37:03;;;;;;;;;37.00;32.50;;;;;7.50;72.51;102029.00;5059817;28;45500;-80
2023/01/26 11:39:41;;;;;;;;;49.25;37.00;;;;;7.57;70.21;102024.06;5077870;28;45337;-77
2023/01/26 11:42:29;;;;;;;;;51.50;37.25;;;;;7.15;70.75;101932.22;5077630;28;45297;-81
2023/01/26 11:45:19;;;;;;;;;51.75;39.00;;;;;7.73;71.73;102020.25;5093505;27;45503;-79
2023/01/26 11:48:00;;;;;;;;;46.50;36.25;;;;;7.78;70.04;102013.50;5093850;27;48195;-79
2023/01/26 11:50:49;;;;;;;;;43.25;31.50;;;;;7.78;69.43;102002.16;5080024;28;45367;-80
2023/01/26 11:53:49;;;;;;;;;45.00;37.25;;;;;7.67;68.21;102009.63;5082800;28;45358;-77
2023/01/26 11:56:24;;;;;;;;;50.00;37.25;;;;;7.57;67.90;102013.63;5092742;27;45428;-76
2023/01/26 11:59:00;;;;;;;;;48.25;38.50;;;;;7.43;69.28;102010.53;5075014;28;45516;-84
2023/01/26 12:01:53;;;;;;;;;53.25;40.50;;;;;7.27;68.38;101994.31;5075897;28;45391;-77
2023/01/26 12:04:21;;;;;;;;;51.25;40.00;;;;;7.05;68.11;101985.72;5079081;28;45345;-77
2023/01/26 12:06:57;;;;;;;;;51.00;39.25;;;;;7.13;67.63;102020.75;5079057;28;45292;-76
2023/01/26 12:09:35;;;;;;;;;53.75;39.50;;;;;6.98;68.11;102015.88;5073937;28;46353;-73
2023/01/26 12:12:26;;;;;;;;;44.75;34.25;;;;;6.82;68.78;102008.31;5074439;27;45476;-72
2023/01/26 12:15:10;;;;;;;;;50.25;38.50;;;;;6.77;68.83;102028.97;5076592;28;45362;-74
2023/01/26 12:17:57;;;;;;;;;51.00;37.50;;;;;6.69;69.05;102011.25;5064181;28;45347;-74
2023/01/26 12:20:33;;;;;;;;;45.00;35.25;;;;;6.57;69.28;102017.78;5077691;28;45682;-74
2023/01/26 12:23:01;;;;;;;;;48.00;36.25;;;;;6.50;69.64;102007.97;5078039;28;45396;-71
2023/01/26 12:25:39;;;;;;;;;51.25;35.25;;;;;6.43;69.88;102011.16;5077836;28;45497;-74
2023/01/26 12:28:18;;;;;;;;;47.00;35.75;;;;;6.38;70.04;102012.66;5074067;28;45412;-73
2023/01/26 12:31:11;;;;;;;;;46.75;36.00;;;;;6.31;70.49;102006.38;5089257;27;47556;-74
2023/01/26 12:33:38;;;;;;;;;48.00;35.25;;;;;6.25;70.89;101998.31;5075958;28;45419;-73
2023/01/26 12:36:26;;;;;;;;;44.50;33.00;;;;;6.20;71.55;101992.03;5071793;28;45624;-72
2023/01/26 12:39:11;;;;;;;;;41.25;32.25;;;;;6.18;71.39;101991.06;5075262;27;45475;-71
2023/01/26 12:41:43;;;;;;;;;41.00;31.50;;;;;6.15;71.63;101993.56;5061435;28;45654;-74
2023/01/26 12:44:39;;;;;;;;;44.25;31.75;;;;;6.11;71.29;101989.06;5073252;28;45558;-73
2023/01/26 12:47:27;;;;;;;;;50.00;38.25;;;;;6.04;72.33;101967.09;5077618;27;45583;-72
2023/01/26 12:49:56;;;;;;;;;38.25;34.00;;;;;6.12;72.28;101980.41;5077966;28;45455;-77
2023/01/26 12:52:54;;;;;;;;;39.00;31.75;;;;;6.06;72.37;101970.66;5074683;28;46261;-73
2023/01/26 12:55:26;;;;;;;;;33.00;28.00;;;;;5.87;72.25;101935.19;5072309;28;45563;-74
2023/01/26 12:58:10;;;;;;;;;28.50;25.25;;;;;5.99;71.94;101960.84;5072349;28;45815;-73
2023/01/26 13:00:37;;;;;;;;;29.50;23.75;;;;;6.00;71.59;101964.31;5055565;28;45417;-74
2023/01/26 13:03:15;;;;;;;;;30.00;23.75;;;;;5.90;72.46;101948.31;5088496;27;46882;-74
2023/01/26 13:06:29;;;;;;;;;31.25;26.25;;;;;5.97;73.08;101959.88;5073307;28;45610;-75
2023/01/26 13:09:03;;;;;;;;;30.75;24.50;;;;;6.01;73.02;101960.91;5050113;28;45553;-74
2023/01/26 13:11:38;;;;;;;;;25.00;24.00;;;;;5.94;72.73;101962.38;5065774;28;45579;-72
2023/01/26 13:14:35;;;;;;;;;25.25;18.75;;;;;5.91;72.58;101957.91;5088918;27;47354;-72
2023/01/26 13:17:15;;;;;;;;;22.25;20.00;;;;;5.93;73.20;101966.66;5063394;28;45420;-72
2023/01/26 13:19:41;;;;;;;;;24.25;22.75;;;;;5.91;72.48;101964.81;5075941;28;45522;-72
2023/01/26 13:22:24;;;;;;;;;21.00;20.00;;;;;5.88;72.66;101960.34;5076473;28;45346;-72
2023/01/26 13:25:15;;;;;;;;;28.25;22.50;;;;;5.86;72.48;101958.53;5077248;27;45464;-75
2023/01/26 13:27:54;;;;;;;;;21.25;18.50;;;;;5.85;72.87;101947.25;5079482;28;45378;-72
2023/01/26 13:30:23;;;;;;;;;25.25;21.25;;;;;5.89;72.80;101966.47;5090687;27;45365;-72
2023/01/26 13:32:48;;;;;;;;;22.50;21.25;;;;;5.90;72.81;101960.44;5080062;28;45452;-73
2023/01/26 13:35:17;;;;;;;;;24.00;20.00;;;;;5.77;72.55;101938.25;5079903;28;45849;-73
2023/01/26 13:37:55;;;;;;;;;21.00;17.75;;;;;5.94;72.87;101965.84;5065495;28;45362;-73
2023/01/26 13:40:34;;;;;;;;;23.75;19.25;;;;;5.95;73.00;101969.34;5080345;28;45294;-72
2023/01/26 13:43:17;;;;;;;;;26.25;23.00;;;;;5.94;72.89;101970.19;5096050;27;45596;-72
2023/01/26 13:46:19;;;;;;;;;24.50;22.75;;;;;5.93;73.31;101961.47;5080531;28;45600;-72
2023/01/26 13:48:48;;;;;;;;;24.25;20.50;;;;;5.94;73.28;101960.66;5071163;28;45425;-71
2023/01/26 13:51:18;;;;;;;;;21.00;18.00;;;;;5.81;73.11;101947.06;5092542;27;45488;-74
2023/01/26 13:54:16;;;;;;;;;27.00;21.75;;;;;5.65;73.15;101923.03;5077247;28;45300;-71
2023/01/26 13:57:03;;;;;;;;;25.25;20.00;;;;;5.80;73.25;101947.88;5078432;28;47847;-74
2023/01/26 13:59:31;;;;;;;;;23.25;17.00;;;;;5.84;73.30;101957.59;5076427;28;45520;-72
2023/01/26 14:01:57;;;;;;;;;20.25;18.25;;;;;5.77;73.41;101942.56;5076745;28;45423;-71
2023/01/26 14:04:27;;;;;;;;;21.50;16.25;;;;;5.84;73.25;101962.81;5080691;28;45466;-71
2023/01/26 14:07:08;;;;;;;;;23.50;19.75;;;;;5.72;73.87;101948.47;5080061;28;46486;-70
2023/01/26 14:09:48;;;;;;;;;23.25;18.00;;;;;5.80;73.62;101964.38;5079170;27;45576;-75
2023/01/26 14:12:34;;;;;;;;;24.00;19.25;;;;;5.78;73.87;101959.94;5096253;27;45511;-72
2023/01/26 14:15:03;;;;;;;;;21.50;17.25;;;;;5.76;73.48;101966.78;5094496;27;45566;-73
2023/01/26 14:17:37;;;;;;;;;25.25;19.50;;;;;5.81;74.06;101962.66;5075582;28;46529;-71
2023/01/26 14:20:24;;;;;;;;;23.75;21.00;;;;;5.84;74.01;101970.59;5075642;28;45699;-73
2023/01/26 14:23:17;;;;;;;;;17.50;15.50;;;;;5.84;74.28;101966.28;5088431;27;45306;-72
2023/01/26 14:25:59;;;;;;;;;24.50;19.50;;;;;5.83;74.08;101963.59;5064812;28;45534;-73
2023/01/26 14:28:33;;;;;;;;;22.00;19.00;;;;;5.78;73.91;101957.34;5079598;28;46291;-74
2023/01/26 14:31:16;;;;;;;;;20.75;17.25;;;;;5.88;74.23;101968.16;5079235;27;45611;-73
2023/01/26 14:33:41;;;;;;;;;20.75;18.25;;;;;5.84;73.95;101962.81;5063102;28;45435;-74
2023/01/26 14:36:14;;;;;;;;;19.75;18.25;;;;;5.85;73.72;101962.84;5091733;27;45555;-75
2023/01/26 14:38:43;;;;;;;;;23.25;18.75;;;;;5.88;73.73;101967.28;5091417;27;47060;-73
2023/01/26 14:41:16;;;;;;;;;19.25;17.75;;;;;5.87;74.09;101971.59;5076192;27;45401;-72
2023/01/26 14:43:41;;;;;;;;;29.75;22.50;;;;;5.83;74.34;101969.69;5076109;28;45349;-75
2023/01/26 14:46:22;;;;;;;;;21.25;19.75;;;;;5.83;74.10;101963.59;5077045;27;45243;-73
2023/01/26 14:49:09;;;;;;;;;7.25;4.25;;;;;5.81;74.71;101970.44;5091429;27;47039;-75
2023/01/26 14:51:36;;;;;;;;;20.00;20.00;;;;;5.72;74.27;101948.47;5078406;28;45525;-75
2023/01/26 14:54:28;;;;;;;;;23.50;16.75;;;;;5.80;74.29;101973.88;5079952;28;45463;-76
2023/01/26 14:56:54;;;;;;;;;20.00;17.50;;;;;5.79;74.52;101965.22;5065061;28;45389;-74
2023/01/26 14:59:24;;;;;;;;;22.25;18.25;;;;;5.80;74.11;101974.78;5074982;28;46534;-73
2023/01/26 15:01:50;;;;;;;;;18.75;16.50;;;;;5.75;74.48;101973.69;5066902;28;45648;-75
2023/01/26 15:04:32;;;;;;;;;20.75;19.00;;;;;5.73;74.85;101976.22;5075901;27;45495;-74
2023/01/26 15:07:21;;;;;;;;;18.75;16.75;;;;;5.77;75.16;101972.06;5075289;28;45468;-74
2023/01/26 15:09:53;;;;;;;;;19.50;19.00;;;;;5.72;75.27;101969.25;5088152;28;45591;-74
2023/01/26 15:12:20;;;;;;;;;26.00;20.25;;;;;5.82;75.26;101975.72;5074700;28;45584;-72
2023/01/26 15:14:48;;;;;;;;;23.00;18.25;;;;;5.82;75.00;101978.31;5078001;27;45317;-76
2023/01/26 15:17:38;;;;;;;;;19.75;19.75;;;;;5.85;76.00;101977.56;5079907;28;45316;-72
2023/01/26 15:20:22;;;;;;;;;25.00;21.25;;;;;5.84;75.84;101981.00;5065207;28;46088;-75
2023/01/26 15:22:50;;;;;;;;;28.25;25.50;;;;;5.82;76.01;101982.66;5065982;28;45413;-75
2023/01/26 15:25:18;;;;;;;;;27.00;24.75;;;;;5.74;76.93;101984.91;5073989;28;45536;-74
2023/01/26 15:27:50;;;;;;;;;25.00;24.25;;;;;5.70;76.51;101977.81;5076285;28;45496;-74
2023/01/26 15:30:18;;;;;;;;;24.75;21.25;;;;;5.76;76.63;101980.66;5074010;27;48090;-76
2023/01/26 15:32:44;;;;;;;;;23.25;19.25;;;;;5.64;76.59;101956.75;5073938;28;45793;-73
2023/01/26 15:35:18;;;;;;;;;20.25;18.00;;;;;5.64;76.29;101948.97;5092821;27;45490;-75
2023/01/26 15:37:43;;;;;;;;;25.00;21.75;;;;;5.85;76.30;101982.75;5065145;28;45424;-76
2023/01/26 15:40:10;;;;;;;;;23.50;21.00;;;;;5.88;76.25;101985.47;5079212;28;46167;-77
2023/01/26 15:42:36;;;;;;;;;24.75;21.00;;;;;5.89;76.51;101984.66;5078362;28;45452;-74
2023/01/26 15:45:01;;;;;;;;;21.50;18.50;;;;;5.70;76.79;101946.63;5076696;28;45418;-73
2023/01/26 15:47:27;;;;;;;;;20.75;18.00;;;;;5.81;76.96;101962.66;5072431;28;45667;-74
2023/01/26 15:49:53;;;;;;;;;20.75;18.25;;;;;5.89;76.92;101971.66;5090020;27;46721;-74
2023/01/26 15:52:24;;;;;;;;;22.25;19.25;;;;;5.89;77.29;101980.34;5075378;28;45345;-74
2023/01/26 15:54:51;;;;;;;;;22.50;21.50;;;;;5.93;76.70;101984.88;5077336;28;45495;-73
2023/01/26 15:57:17;;;;;;;;;20.25;19.00;;;;;5.90;77.34;101976.91;5073950;28;45376;-74
2023/01/26 15:59:43;;;;;;;;;20.50;19.25;;;;;5.95;77.48;101988.41;5075189;27;46626;-75
2023/01/26 16:02:14;;;;;;;;;24.75;18.50;;;;;6.00;77.61;101999.00;5090334;27;45736;-74
2023/01/26 16:04:40;;;;;;;;;21.50;19.00;;;;;5.93;77.59;101979.66;5074703;27;45666;-74
2023/01/26 16:07:12;;;;;;;;;21.75;17.75;;;;;6.00;77.20;101987.72;5072991;27;45493;-74
2023/01/26 16:09:38;;;;;;;;;23.00;21.25;;;;;5.97;77.91;101985.88;5075026;28;45398;-72
2023/01/26 16:12:04;;;;;;;;;20.75;20.25;;;;;5.90;77.78;101973.44;5075661;28;45449;-75
2023/01/26 16:14:29;;;;;;;;;24.50;22.00;;;;;5.98;78.45;102000.69;5075905;28;45563;-75
2023/01/26 16:16:55;;;;;;;;;21.50;18.75;;;;;5.95;78.44;101983.22;5076411;28;45466;-76
2023/01/26 16:19:20;;;;;;;;;19.75;18.50;;;;;5.97;78.17;101988.50;5075236;28;45668;-76
2023/01/26 16:21:46;;;;;;;;;23.25;20.25;;;;;5.91;78.63;101978.72;5075009;28;45527;-76
2023/01/26 16:24:11;;;;;;;;;25.25;21.00;;;;;6.00;77.96;101992.94;5076992;28;45753;-75
2023/01/26 16:26:37;;;;;;;;;23.75;22.00;;;;;6.06;78.91;102003.59;5073930;28;45446;-75
2023/01/26 16:29:02;;;;;;;;;28.50;23.50;;;;;5.92;77.89;101976.97;5076602;28;45673;-74
2023/01/26 16:31:36;;;;;;;;;29.25;24.00;;;;;5.99;78.38;101994.66;5085750;28;45333;-77
2023/01/26 16:34:02;;;;;;;;;28.00;22.00;;;;;6.03;78.70;102001.75;5077808;28;45488;-77
2023/01/26 16:36:27;;;;;;;;;24.50;21.00;;;;;6.00;78.70;101996.41;5064829;28;45524;-75
2023/01/26 16:38:53;;;;;;;;;26.75;23.75;;;;;6.05;78.62;101999.19;5068956;28;45941;-75
2023/01/26 16:41:28;;;;;;;;;25.25;23.25;;;;;6.12;78.75;102014.22;5075310;28;45361;-73
2023/01/26 16:43:56;;;;;;;;;27.50;26.00;;;;;6.12;78.60;102014.22;5089286;27;45690;-75
2023/01/26 16:46:23;;;;;;;;;32.25;25.00;;;;;6.14;78.88;102017.78;5076130;28;45416;-77
2023/01/26 16:48:48;;;;;;;;;29.50;26.00;;;;;6.08;78.77;102013.22;5077986;28;46421;-70
2023/01/26 16:51:19;;;;;;;;;32.75;27.50;;;;;6.08;79.23;102001.94;5074278;28;45975;-71
2023/01/26 16:53:45;;;;;;;;;32.50;25.00;;;;;6.04;79.10;102002.63;5092459;27;45343;-74
2023/01/26 16:56:13;;;;;;;;;28.50;23.75;;;;;6.12;78.91;102015.16;5078466;28;45528;-74
2023/01/26 16:58:38;;;;;;;;;26.75;21.75;;;;;6.07;78.87;102016.63;5077429;27;45528;-76
2023/01/26 17:01:09;;;;;;;;;25.75;23.75;;;;;6.19;79.00;102030.97;5077953;28;45451;-75
2023/01/26 17:03:36;;;;;;;;;25.25;20.00;;;;;6.20;79.13;102028.44;5076590;27;45456;-72
2023/01/26 17:06:02;;;;;;;;;30.00;27.50;;;;;6.19;79.18;102021.47;5078682;28;45866;-75
2023/01/26 17:08:28;;;;;;;;;27.00;26.00;;;;;6.13;79.40;102013.41;5079553;28;46138;-71
2023/01/26 17:10:53;;;;;;;;;26.50;23.50;;;;;6.23;79.05;102031.16;5082658;27;45829;-73
2023/01/26 17:13:19;;;;;;;;;30.00;27.25;;;;;6.12;79.00;102009.94;5061011;28;45413;-77
2023/01/26 17:15:45;;;;;;;;;26.25;21.25;;;;;6.26;78.75;102028.69;5078080;28;45413;-76
2023/01/26 17:18:12;;;;;;;;;31.75;27.75;;;;;6.12;79.02;101998.63;5076062;28;45478;-75
2023/01/26 17:20:40;;;;;;;;;31.25;24.25;;;;;6.29;79.19;102026.22;5076994;28;45408;-72
2023/01/26 17:23:05;;;;;;;;;29.50;26.75;;;;;6.30;78.78;102030.59;5077514;28;45489;-72
2023/01/26 17:25:31;;;;;;;;;28.75;24.75;;;;;6.26;78.86;102031.28;5077309;28;45411;-72
2023/01/26 17:27:57;;;;;;;;;26.00;23.00;;;;;6.31;79.00;102032.38;5077420;28;45972;-75
2023/01/26 17:30:23;;;;;;;;;23.75;22.50;;;;;6.33;78.72;102024.63;5082040;27;45323;-76
2023/01/26 17:32:48;;;;;;;;;21.00;20.75;;;;;6.25;78.67;102018.22;5080539;28;45392;-74
2023/01/26 17:35:14;;;;;;;;;23.75;20.50;;;;;6.27;78.59;102027.88;5083913;28;45302;-73
2023/01/26 17:37:40;;;;;;;;;21.25;18.50;;;;;6.30;78.33;102033.19;5071951;28;45545;-73
2023/01/26 17:40:07;;;;;;;;;25.00;18.00;;;;;6.31;78.36;102032.38;5087584;28;45362;-73
2023/01/26 17:42:33;;;;;;;;;21.00;19.75;;;;;6.41;78.10;102040.53;5084497;28;45448;-74
2023/01/26 17:45:00;;;;;;;;;24.25;17.25;;;;;6.39;78.04;102045.69;5082445;28;45519;-74
2023/01/26 17:47:27;;;;;;;;;22.75;18.00;;;;;6.44;77.93;102049.38;5080710;28;45477;-74
2023/01/26 17:49:52;;;;;;;;;23.25;15.25;;;;;6.46;77.64;102052.91;5080963;28;45429;-74
2023/01/26 17:52:18;;;;;;;;;23.00;20.00;;;;;6.42;77.45;102044.94;5080961;28;45329;-76
2023/01/26 17:54:44;;;;;;;;;20.00;15.50;;;;;6.35;77.26;102030.78;5077542;28;45513;-75
2023/01/26 17:57:11;;;;;;;;;23.25;19.25;;;;;6.45;77.04;102038.09;5075711;28;46781;-74
2023/01/26 17:59:36;;;;;;;;;18.75;15.50;;;;;6.50;77.13;102051.31;5075497;27;45821;-77
2023/01/26 18:02:11;;;;;;;;;20.00;15.00;;;;;6.50;76.19;102051.31;5082646;28;45507;-78
2023/01/26 18:04:36;;;;;;;;;21.00;15.25;;;;;6.36;76.19;102023.03;5076819;28;45691;-77
2023/01/26 18:07:02;;;;;;;;;15.75;11.75;;;;;6.49;75.34;102053.03;5076993;28;45461;-73
2023/01/26 18:09:28;;;;;;;;;13.25;12.00;;;;;6.44;74.60;102038.94;5080112;28;45420;-75
2023/01/26 18:11:53;;;;;;;;;15.25;12.50;;;;;6.45;73.90;102047.63;5081169;28;45427;-76
2023/01/26 18:14:19;;;;;;;;;14.50;13.50;;;;;6.43;74.09;102049.28;5068862;28;45347;-75
2023/01/26 18:16:46;;;;;;;;;16.25;13.25;;;;;6.47;73.82;102053.81;5094279;27;46633;-73
2023/01/26 18:19:12;;;;;;;;;15.50;13.75;;;;;6.35;72.24;102036.84;5079016;27;45833;-77
2023/01/26 18:21:39;;;;;;;;;11.25;8.00;;;;;6.45;70.75;102058.94;5077381;28;45484;-72
2023/01/26 18:24:06;;;;;;;;;12.75;10.50;;;;;6.47;70.51;102066.81;5077260;27;45325;-74
2023/01/26 18:26:34;;;;;;;;;10.75;8.00;;;;;6.40;70.51;102049.19;5079853;28;46195;-74
2023/01/26 18:29:00;;;;;;;;;16.25;9.00;;;;;6.45;70.66;102052.84;5078817;28;45430;-73
2023/01/26 18:31:29;;;;;;;;;5.50;3.50;;;;;6.42;70.23;102040.59;5095298;27;45434;-76
2023/01/26 18:33:58;;;;;;;;;10.75;8.75;;;;;6.48;69.30;102053.00;5097203;27;45413;-76
2023/01/26 18:36:24;;;;;;;;;9.50;9.00;;;;;6.40;69.70;102044.84;5075799;28;45350;-76
2023/01/26 18:38:56;;;;;;;;;9.75;7.75;;;;;6.50;69.84;102057.44;5076479;28;45527;-75
2023/01/26 18:41:23;;;;;;;;;11.50;9.50;;;;;6.50;68.85;102051.31;5077893;28;45357;-75
2023/01/26 18:43:50;;;;;;;;;11.00;9.50;;;;;6.50;68.63;102040.91;5093445;27;45498;-74
2023/01/26 18:46:16;;;;;;;;;10.50;9.50;;;;;6.51;68.54;102050.50;5078320;28;47057;-72
2023/01/26 18:48:42;;;;;;;;;14.75;10.00;;;;;6.46;68.33;102047.72;5082475;27;45371;-75
2023/01/26 18:51:07;;;;;;;;;12.25;11.50;;;;;6.48;68.21;102056.47;5080546;28;45459;-74
2023/01/26 18:53:35;;;;;;;;;10.50;8.50;;;;;6.45;67.80;102050.25;5080362;28;45506;-71
2023/01/26 18:56:05;;;;;;;;;13.25;12.00;;;;;6.23;68.36;102023.38;5077941;28;45869;-73